Latest Coastal Weather Observations for Bedout Island

IDW60701

Issued at 2:02 pm WST Friday 1 July 2016 (issued every 10 minutes, with the page automatically refreshed every 10 minutes)

About coastal observations | Map of coastal stations | Coastal observations for WA | Marine services | Other Formats
Station Details ID: 004100 Name: BEDOUT ISLAND Lat: -19.59 Lon: 119.10 Height: 8.6 m
Data from the previous 72 hours. | See also: Recent months at Bedout Island
Date/Time
WST
Temp
°C
Wind Pressure Rain since
9am
mm
Weather Cloud Vis
km
Sea
Height
m
Swell
Dir  Spd
kts
Gust
kts
hPa Trend Height
m
Period
s
Dir
01/02:00pm 23.4 SE 20 23 1015.0 - - - - - - - - -
01/01:30pm 23.7 ESE 21 24 1015.1 - - - - - - - - -
01/01:00pm 23.1 SE 25 28 1015.0 - - - - - - - - -
01/11:30am 23.3 SE 25 30 1016.7 - - - - - - - - -
01/11:00am 22.9 SE 26 30 1016.8 - - - - - - - - -
01/10:30am 23.2 SE 24 28 1017.3 - - - - - - - - -
01/10:00am 23.2 SE 23 25 1017.6 - - - - - - - - -
01/09:30am 22.5 SE 24 27 1017.9 - - - - - - - - -
01/09:00am 23.4 SE 24 28 1017.7 - - - - - - - - -
01/08:30am 23.4 ESE 24 27 1017.4 - - - - - - - - -
01/08:00am 23.4 ESE 21 29 1017.1 - - - - - - - - -
01/07:30am 23.2 SE 22 26 1016.7 - - - - - - - - -
01/07:00am 23.0 SE 22 28 1016.6 - - - - - - - - -
01/06:30am 23.4 SE 23 26 1016.1 - - - - - - - - -
01/06:00am 23.5 SE 24 27 1015.5 - - - - - - - - -
01/05:30am 23.3 SE 22 24 1015.6 - - - - - - - - -
01/05:00am 23.4 ESE 23 26 1015.4 - - - - - - - - -
01/04:30am 23.5 ESE 24 28 1015.4 - - - - - - - - -
01/04:00am 23.4 SE 22 26 1015.4 - - - - - - - - -
01/03:30am 23.3 SE 22 25 1015.4 - - - - - - - - -
01/03:00am 23.5 SE 22 26 1015.6 - - - - - - - - -
01/02:00am 23.9 SSE 23 26 1016.0 - - - - - - - - -
01/01:30am 24.0 SSE 21 24 1016.0 - - - - - - - - -
01/01:00am 24.2 SSE 19 21 1016.3 - - - - - - - - -
01/12:30am 23.6 SSE 19 22 1016.5 - - - - - - - - -
01/12:00am 23.8 SE 16 18 1016.6 - - - - - - - - -
 
Date/Time
WST
Temp
°C
Wind Pressure Rain since
9am
mm
Weather Cloud Vis
km
Sea
Height
m
Swell
Dir  Spd
kts
Gust
kts
hPa Trend Height
m
Period
s
Dir
30/11:30pm 24.5 SE 14 16 1017.0 - - - - - - - - -
30/11:00pm 24.7 SE 14 16 1016.9 - - - - - - - - -
30/10:30pm 24.9 SE 13 16 1017.1 - - - - - - - - -
30/10:00pm 25.0 ESE 10 11 1016.9 - - - - - - - - -
30/09:30pm 24.5 ESE 7 7 1017.0 - - - - - - - - -
30/09:00pm 24.5 ESE 6 7 1016.7 - - - - - - - - -
30/08:30pm 24.6 ESE 7 7 1016.6 - - - - - - - - -
30/08:00pm 24.4 ESE 5 6 1016.4 - - - - - - - - -
30/07:30pm 24.4 ESE 3 4 1016.0 - - - - - - - - -
30/07:00pm 24.6 ESE 3 3 1015.8 - - - - - - - - -
30/06:30pm 24.6 ESE 1 3 1015.4 - - - - - - - - -
30/06:00pm 24.6 ESE 3 3 1014.9 - - - - - - - - -
30/05:30pm 24.8 ESE 3 4 1014.5 - - - - - - - - -
30/05:00pm 25.1 ESE 4 5 1014.1 - - - - - - - - -
30/04:30pm 25.2 ESE 6 6 1014.0 - - - - - - - - -
30/04:00pm 25.6 ESE 7 7 1013.9 - - - - - - - - -
30/03:30pm 25.7 ESE 8 8 1013.9 - - - - - - - - -
30/03:00pm 25.9 ESE 8 9 1013.8 - - - - - - - - -
30/02:30pm 25.9 ESE 10 11 1013.9 - - - - - - - - -
30/02:00pm 26.2 ESE 10 12 1014.2 - - - - - - - - -
30/01:30pm 26.0 ESE 12 14 1014.2 - - - - - - - - -
30/01:00pm 26.2 ESE 12 14 1014.4 - - - - - - - - -
30/12:30pm 26.6 ESE 14 15 1014.9 - - - - - - - - -
30/12:00pm 26.2 ESE 15 17 1015.3 - - - - - - - - -
30/11:30am 26.0 SE 16 17 1015.9 - - - - - - - - -
30/11:00am 27.0 SE 16 18 1016.3 - - - - - - - - -
30/10:30am 25.7 SE 16 17 1016.4 - - - - - - - - -
30/10:00am 25.4 SE 15 17 1016.7 - - - - - - - - -
30/09:30am 25.2 SE 15 18 1016.8 - - - - - - - - -
30/09:00am 25.2 SE 15 17 1016.8 - - - - - - - - -
30/08:30am 25.0 SE 11 13 1016.8 - - - - - - - - -
30/08:00am 24.6 SE 16 18 1016.5 - - - - - - - - -
30/07:30am 24.2 SE 14 16 1016.5 - - - - - - - - -
30/07:00am 23.9 SE 13 14 1016.2 - - - - - - - - -
30/06:30am 23.5 SE 13 14 1015.8 - - - - - - - - -
30/06:00am 23.5 SE 14 15 1015.5 - - - - - - - - -
30/05:30am 23.4 SE 12 14 1015.4 - - - - - - - - -
30/05:00am 23.5 SE 11 13 1015.1 - - - - - - - - -
30/04:30am 23.8 SE 11 12 1014.9 - - - - - - - - -
30/04:00am 23.8 SE 10 11 1014.8 - - - - - - - - -
30/03:30am 23.6 SE 9 10 1014.9 - - - - - - - - -
30/03:00am 23.3 SE 9 11 1015.1 - - - - - - - - -
30/02:30am 23.4 SE 9 11 1015.3 - - - - - - - - -
30/02:00am 24.1 SE 7 10 1015.5 - - - - - - - - -
30/01:30am 24.7 CALM 0 0 1015.9 - - - - - - - - -
30/01:00am 24.8 SE 2 4 1016.1 - - - - - - - - -
30/12:30am 25.0 SE 4 5 1016.3 - - - - - - - - -
30/12:00am 25.0 SE 5 5 1016.4 - - - - - - - - -
 
Date/Time
WST
Temp
°C
Wind Pressure Rain since
9am
mm
Weather Cloud Vis
km
Sea
Height
m
Swell
Dir  Spd
kts
Gust
kts
hPa Trend Height
m
Period
s
Dir
29/11:30pm 25.3 SE 6 6 1016.8 - - - - - - - - -
29/11:00pm 25.4 SE 5 6 1017.2 - - - - - - - - -
29/10:30pm 25.2 SE 5 5 1017.2 - - - - - - - - -
29/10:00pm 25.0 SE 5 6 1017.1 - - - - - - - - -
29/09:30pm 24.8 SE 5 5 1017.0 - - - - - - - - -
29/09:00pm 24.6 SE 5 6 1017.0 - - - - - - - - -
29/08:30pm 25.1 SE 5 6 1017.0 - - - - - - - - -
29/08:00pm 25.0 SE 6 7 1016.8 - - - - - - - - -
29/07:30pm 24.8 SE 7 7 1016.7 - - - - - - - - -
29/07:00pm 25.0 SE 6 7 1016.3 - - - - - - - - -
29/06:30pm 25.3 SE 8 9 1016.1 - - - - - - - - -
29/06:00pm 25.2 SE 8 9 1015.6 - - - - - - - - -
29/05:00pm 25.5 SE 8 9 1015.1 - - - - - - - - -
29/04:30pm 25.9 SE 8 9 1014.9 - - - - - - - - -
29/04:00pm 26.3 SE 8 9 1014.6 - - - - - - - - -
29/03:30pm 27.1 SE 7 8 1014.6 - - - - - - - - -
29/03:00pm 27.7 SE 8 9 1014.4 - - - - - - - - -
29/02:30pm 27.8 SE 7 8 1014.5 - - - - - - - - -
29/02:00pm 27.2 SE 6 7 1014.7 - - - - - - - - -
29/01:30pm 26.5 SE 5 6 1014.8 - - - - - - - - -
29/12:30pm 27.1 SE 8 8 1015.6 - - - - - - - - -
29/12:00pm 26.4 SE 9 10 1015.9 - - - - - - - - -
29/11:30am 26.1 SE 11 12 1016.3 - - - - - - - - -
29/11:00am 26.1 SE 12 13 1016.6 - - - - - - - - -
29/10:30am 25.7 SE 12 14 1016.7 - - - - - - - - -
29/10:00am 25.4 SE 12 14 1016.8 - - - - - - - - -
29/09:30am 24.8 SE 13 14 1016.9 - - - - - - - - -
29/09:00am 25.1 SE 12 14 1016.8 - - - - - - - - -
29/08:30am 24.5 SE 11 12 1016.8 - - - - - - - - -
29/08:00am 24.3 SE 9 11 1016.6 - - - - - - - - -
29/07:30am 23.4 SE 9 10 1016.4 - - - - - - - - -
29/07:00am 22.5 SE 10 11 1016.2 - - - - - - - - -
29/06:30am 22.7 SE 10 11 1015.9 - - - - - - - - -
29/06:00am 23.2 SE 9 10 1015.5 - - - - - - - - -
29/05:30am 23.3 SE 9 11 1015.2 - - - - - - - - -
29/05:00am 23.8 SE 8 9 1015.0 - - - - - - - - -
29/04:30am 23.8 SE 7 9 1014.8 - - - - - - - - -
29/04:00am 23.7 SE 7 8 1014.8 - - - - - - - - -
29/03:30am 23.8 SE 7 8 1014.9 - - - - - - - - -
29/03:00am 23.9 SE 8 9 1014.9 - - - - - - - - -
29/02:30am 23.8 SE 8 9 1015.2 - - - - - - - - -
29/02:00am 23.9 SE 9 11 1015.6 - - - - - - - - -
29/01:30am 23.9 SE 10 11 1016.0 - - - - - - - - -
29/01:00am 23.6 SE 8 9 1016.2 - - - - - - - - -
29/12:30am 23.4 SE 7 8 1016.4 - - - - - - - - -
29/12:00am 22.9 SE 7 8 1016.5 - - - - - - - - -
 
Date/Time
WST
Temp
°C
Wind Pressure Rain since
9am
mm
Weather Cloud Vis
km
Sea
Height
m
Swell
Dir  Spd
kts
Gust
kts
hPa Trend Height
m
Period
s
Dir
28/11:30pm 23.1 SE 7 8 1016.7 - - - - - - - - -
28/11:00pm 23.1 SE 8 9 1016.7 - - - - - - - - -
28/10:30pm 23.0 SE 6 7 1016.7 - - - - - - - - -
28/10:00pm 23.8 SE 4 5 1016.8 - - - - - - - - -
28/09:30pm 23.8 CALM 0 0 1016.6 - - - - - - - - -
28/09:00pm 24.0 CALM 0 0 1016.4 - - - - - - - - -
28/08:30pm 23.8 CALM 0 0 1016.5 - - - - - - - - -
28/08:00pm 23.3 CALM 0 0 1016.2 - - - - - - - - -
28/07:30pm 23.5 CALM 0 0 1016.0 - - - - - - - - -
28/07:00pm 23.2 CALM 0 0 1015.7 - - - - - - - - -
28/06:30pm 22.7 CALM 0 0 1015.5 - - - - - - - - -
28/06:00pm 23.2 CALM 0 2 1015.0 - - - - - - - - -
28/05:30pm 23.8 SE 3 4 1014.8 - - - - - - - - -
28/04:30pm 24.8 SE 6 7 1014.5 - - - - - - - - -
28/04:00pm 24.8 SE 6 7 1014.5 - - - - - - - - -
28/03:30pm 25.0 SE 5 6 1014.5 - - - - - - - - -
28/03:00pm 24.5 SE 5 6 1014.4 - - - - - - - - -
28/02:30pm 24.5 SE 5 6 1014.6 - - - - - - - - -

Other Formats:

Comma delimited format used in spreadsheet applications
http://www.bom.gov.au/fwo/IDW60701/IDW60701.94310.axf

JavaScript Object Notation format (JSON) in row-major order
http://www.bom.gov.au/fwo/IDW60701/IDW60701.94310.json